sensor_id;sensor_type;location;lat;lon;timestamp;P1;P2;P0
63707;PMS5003;67643;-34.198;22.084;2023-08-17T00:00:27;5;4;
63707;PMS5003;67643;-34.198;22.084;2023-08-17T00:02:55;5;2;
63707;PMS5003;67643;-34.198;22.084;2023-08-17T00:05:24;5;5;
63707;PMS5003;67643;-34.198;22.084;2023-08-17T00:07:52;5;4;
63707;PMS5003;67643;-34.198;22.084;2023-08-17T00:10:21;7;5;
63707;PMS5003;67643;-34.198;22.084;2023-08-17T00:12:49;6;4;
63707;PMS5003;67643;-34.198;22.084;2023-08-17T00:15:18;5;5;
63707;PMS5003;67643;-34.198;22.084;2023-08-17T00:17:46;6;5;
63707;PMS5003;67643;-34.198;22.084;2023-08-17T00:20:15;5;5;
63707;PMS5003;67643;-34.198;22.084;2023-08-17T00:22:44;7;3;
63707;PMS5003;67643;-34.198;22.084;2023-08-17T00:25:12;5;4;
63707;PMS5003;67643;-34.198;22.084;2023-08-17T00:27:41;2;2;
63707;PMS5003;67643;-34.198;22.084;2023-08-17T00:30:10;6;6;
63707;PMS5003;67643;-34.198;22.084;2023-08-17T00:32:39;5;3;
63707;PMS5003;67643;-34.198;22.084;2023-08-17T00:35:07;6;6;
63707;PMS5003;67643;-34.198;22.084;2023-08-17T00:37:36;4;3;
63707;PMS5003;67643;-34.198;22.084;2023-08-17T00:40:05;7;5;
63707;PMS5003;67643;-34.198;22.084;2023-08-17T00:42:34;5;4;
63707;PMS5003;67643;-34.198;22.084;2023-08-17T00:45:02;6;4;
63707;PMS5003;67643;-34.198;22.084;2023-08-17T00:47:31;4;4;
63707;PMS5003;67643;-34.198;22.084;2023-08-17T00:49:59;7;6;
63707;PMS5003;67643;-34.198;22.084;2023-08-17T00:52:28;4;4;
63707;PMS5003;67643;-34.198;22.084;2023-08-17T00:54:59;7;4;
63707;PMS5003;67643;-34.198;22.084;2023-08-17T00:57:30;9;5;
63707;PMS5003;67643;-34.198;22.084;2023-08-17T00:59:59;7;3;
63707;PMS5003;67643;-34.198;22.084;2023-08-17T01:02:27;4;4;
63707;PMS5003;67643;-34.198;22.084;2023-08-17T01:04:56;4;4;
63707;PMS5003;67643;-34.198;22.084;2023-08-17T01:07:25;4;4;
63707;PMS5003;67643;-34.198;22.084;2023-08-17T01:09:53;6;4;
63707;PMS5003;67643;-34.198;22.084;2023-08-17T01:12:24;6;5;
63707;PMS5003;67643;-34.198;22.084;2023-08-17T01:15:01;6;5;
63707;PMS5003;67643;-34.198;22.084;2023-08-17T01:17:37;8;5;
63707;PMS5003;67643;-34.198;22.084;2023-08-17T01:20:09;4;4;
63707;PMS5003;67643;-34.198;22.084;2023-08-17T01:22:40;9;5;
63707;PMS5003;67643;-34.198;22.084;2023-08-17T01:25:11;5;3;
63707;PMS5003;67643;-34.198;22.084;2023-08-17T01:27:40;6;5;
63707;PMS5003;67643;-34.198;22.084;2023-08-17T01:30:11;5;4;
63707;PMS5003;67643;-34.198;22.084;2023-08-17T01:32:42;5;5;
63707;PMS5003;67643;-34.198;22.084;2023-08-17T01:35:18;7;6;
63707;PMS5003;67643;-34.198;22.084;2023-08-17T01:37:56;8;5;
63707;PMS5003;67643;-34.198;22.084;2023-08-17T01:40:29;8;5;
63707;PMS5003;67643;-34.198;22.084;2023-08-17T01:43:00;4;4;
63707;PMS5003;67643;-34.198;22.084;2023-08-17T01:45:30;4;4;
63707;PMS5003;67643;-34.198;22.084;2023-08-17T01:47:59;2;2;
63707;PMS5003;67643;-34.198;22.084;2023-08-17T01:50:27;4;4;
63707;PMS5003;67643;-34.198;22.084;2023-08-17T01:52:55;6;4;
63707;PMS5003;67643;-34.198;22.084;2023-08-17T01:55:24;6;4;
63707;PMS5003;67643;-34.198;22.084;2023-08-17T01:57:52;4;4;
63707;PMS5003;67643;-34.198;22.084;2023-08-17T02:00:21;2;2;
63707;PMS5003;67643;-34.198;22.084;2023-08-17T04:04:16;2;2;
63707;PMS5003;67643;-34.198;22.084;2023-08-17T04:06:45;3;3;
63707;PMS5003;67643;-34.198;22.084;2023-08-17T04:09:14;4;4;
63707;PMS5003;67643;-34.198;22.084;2023-08-17T04:11:42;3;3;
63707;PMS5003;67643;-34.198;22.084;2023-08-17T04:14:12;6;5;
63707;PMS5003;67643;-34.198;22.084;2023-08-17T04:16:40;5;4;
63707;PMS5003;67643;-34.198;22.084;2023-08-17T04:19:09;5;4;
63707;PMS5003;67643;-34.198;22.084;2023-08-17T04:21:38;2;2;
63707;PMS5003;67643;-34.198;22.084;2023-08-17T04:24:06;4;4;
63707;PMS5003;67643;-34.198;22.084;2023-08-17T04:26:35;3;3;
63707;PMS5003;67643;-34.198;22.084;2023-08-17T04:29:03;3;2;
63707;PMS5003;67643;-34.198;22.084;2023-08-17T04:31:32;6;6;
63707;PMS5003;67643;-34.198;22.084;2023-08-17T04:34:00;4;3;
63707;PMS5003;67643;-34.198;22.084;2023-08-17T04:36:29;3;3;
63707;PMS5003;67643;-34.198;22.084;2023-08-17T04:38:57;5;3;
63707;PMS5003;67643;-34.198;22.084;2023-08-17T04:41:26;2;2;
63707;PMS5003;67643;-34.198;22.084;2023-08-17T04:43:54;5;4;
63707;PMS5003;67643;-34.198;22.084;2023-08-17T04:46:23;5;3;
63707;PMS5003;67643;-34.198;22.084;2023-08-17T04:48:52;3;3;
63707;PMS5003;67643;-34.198;22.084;2023-08-17T04:51:20;6;6;
63707;PMS5003;67643;-34.198;22.084;2023-08-17T04:53:48;4;4;
63707;PMS5003;67643;-34.198;22.084;2023-08-17T04:56:16;5;5;
63707;PMS5003;67643;-34.198;22.084;2023-08-17T04:58:44;10;10;
63707;PMS5003;67643;-34.198;22.084;2023-08-17T05:01:13;11;11;
63707;PMS5003;67643;-34.198;22.084;2023-08-17T05:03:41;14;13;
63707;PMS5003;67643;-34.198;22.084;2023-08-17T05:06:09;15;11;
63707;PMS5003;67643;-34.198;22.084;2023-08-17T05:08:38;12;11;
63707;PMS5003;67643;-34.198;22.084;2023-08-17T05:11:06;13;12;
63707;PMS5003;67643;-34.198;22.084;2023-08-17T05:13:35;11;11;
63707;PMS5003;67643;-34.198;22.084;2023-08-17T05:16:04;18;16;
63707;PMS5003;67643;-34.198;22.084;2023-08-17T05:18:31;14;14;
63707;PMS5003;67643;-34.198;22.084;2023-08-17T05:20:59;14;10;
63707;PMS5003;67643;-34.198;22.084;2023-08-17T05:23:28;13;11;
63707;PMS5003;67643;-34.198;22.084;2023-08-17T05:25:56;17;11;
63707;PMS5003;67643;-34.198;22.084;2023-08-17T05:28:25;11;10;
63707;PMS5003;67643;-34.198;22.084;2023-08-17T05:30:54;12;9;
63707;PMS5003;67643;-34.198;22.084;2023-08-17T05:33:22;12;10;
63707;PMS5003;67643;-34.198;22.084;2023-08-17T05:35:53;12;10;
63707;PMS5003;67643;-34.198;22.084;2023-08-17T05:38:21;13;10;
63707;PMS5003;67643;-34.198;22.084;2023-08-17T05:40:54;12;9;
63707;PMS5003;67643;-34.198;22.084;2023-08-17T05:43:23;13;10;
63707;PMS5003;67643;-34.198;22.084;2023-08-17T05:45:52;11;9;
63707;PMS5003;67643;-34.198;22.084;2023-08-17T05:48:21;11;10;
63707;PMS5003;67643;-34.198;22.084;2023-08-17T05:50:49;12;11;
63707;PMS5003;67643;-34.198;22.084;2023-08-17T05:53:17;19;15;
63707;PMS5003;67643;-34.198;22.084;2023-08-17T05:55:46;12;11;
63707;PMS5003;67643;-34.198;22.084;2023-08-17T05:58:14;12;10;
63707;PMS5003;67643;-34.198;22.084;2023-08-17T06:00:43;13;13;
63707;PMS5003;67643;-34.198;22.084;2023-08-17T06:03:11;10;10;
63707;PMS5003;67643;-34.198;22.084;2023-08-17T06:05:40;9;9;
63707;PMS5003;67643;-34.198;22.084;2023-08-17T06:08:09;10;9;
63707;PMS5003;67643;-34.198;22.084;2023-08-17T06:10:37;18;16;
63707;PMS5003;67643;-34.198;22.084;2023-08-17T06:13:06;11;10;
63707;PMS5003;67643;-34.198;22.084;2023-08-17T06:15:34;14;13;
63707;PMS5003;67643;-34.198;22.084;2023-08-17T06:18:03;10;10;
63707;PMS5003;67643;-34.198;22.084;2023-08-17T06:20:31;15;11;
63707;PMS5003;67643;-34.198;22.084;2023-08-17T06:23:00;13;11;
63707;PMS5003;67643;-34.198;22.084;2023-08-17T06:25:28;9;9;
63707;PMS5003;67643;-34.198;22.084;2023-08-17T06:27:57;8;6;
63707;PMS5003;67643;-34.198;22.084;2023-08-17T06:30:26;8;8;
63707;PMS5003;67643;-34.198;22.084;2023-08-17T06:32:54;8;8;
63707;PMS5003;67643;-34.198;22.084;2023-08-17T06:35:23;7;5;
63707;PMS5003;67643;-34.198;22.084;2023-08-17T06:37:52;7;5;
63707;PMS5003;67643;-34.198;22.084;2023-08-17T06:40:20;6;6;
63707;PMS5003;67643;-34.198;22.084;2023-08-17T06:42:49;8;8;
63707;PMS5003;67643;-34.198;22.084;2023-08-17T06:45:17;10;7;
63707;PMS5003;67643;-34.198;22.084;2023-08-17T06:47:45;4;4;
63707;PMS5003;67643;-34.198;22.084;2023-08-17T06:50:14;8;3;
63707;PMS5003;67643;-34.198;22.084;2023-08-17T06:52:43;8;3;
63707;PMS5003;67643;-34.198;22.084;2023-08-17T06:55:11;5;5;
63707;PMS5003;67643;-34.198;22.084;2023-08-17T06:57:40;5;5;
63707;PMS5003;67643;-34.198;22.084;2023-08-17T07:00:09;4;4;
63707;PMS5003;67643;-34.198;22.084;2023-08-17T07:02:38;5;5;
63707;PMS5003;67643;-34.198;22.084;2023-08-17T07:05:06;5;4;
63707;PMS5003;67643;-34.198;22.084;2023-08-17T07:07:35;6;6;
63707;PMS5003;67643;-34.198;22.084;2023-08-17T07:10:04;4;3;
63707;PMS5003;67643;-34.198;22.084;2023-08-17T07:12:33;7;3;
63707;PMS5003;67643;-34.198;22.084;2023-08-17T07:15:01;5;5;
63707;PMS5003;67643;-34.198;22.084;2023-08-17T07:17:30;3;3;
63707;PMS5003;67643;-34.198;22.084;2023-08-17T07:19:59;7;7;
63707;PMS5003;67643;-34.198;22.084;2023-08-17T07:22:27;3;3;
63707;PMS5003;67643;-34.198;22.084;2023-08-17T07:24:55;2;2;
63707;PMS5003;67643;-34.198;22.084;2023-08-17T07:27:24;4;4;
63707;PMS5003;67643;-34.198;22.084;2023-08-17T07:29:53;10;8;
63707;PMS5003;67643;-34.198;22.084;2023-08-17T07:32:21;7;7;
63707;PMS5003;67643;-34.198;22.084;2023-08-17T07:34:49;8;5;
63707;PMS5003;67643;-34.198;22.084;2023-08-17T07:37:18;5;5;
63707;PMS5003;67643;-34.198;22.084;2023-08-17T07:39:46;9;9;
63707;PMS5003;67643;-34.198;22.084;2023-08-17T07:42:15;8;8;
63707;PMS5003;67643;-34.198;22.084;2023-08-17T07:44:44;5;5;
63707;PMS5003;67643;-34.198;22.084;2023-08-17T07:47:12;8;7;
63707;PMS5003;67643;-34.198;22.084;2023-08-17T07:49:41;4;4;
63707;PMS5003;67643;-34.198;22.084;2023-08-17T07:52:09;6;4;
63707;PMS5003;67643;-34.198;22.084;2023-08-17T07:54:38;3;2;
63707;PMS5003;67643;-34.198;22.084;2023-08-17T07:57:07;3;3;
63707;PMS5003;67643;-34.198;22.084;2023-08-17T07:59:35;5;3;
63707;PMS5003;67643;-34.198;22.084;2023-08-17T08:02:04;4;4;
63707;PMS5003;67643;-34.198;22.084;2023-08-17T08:04:32;4;3;
63707;PMS5003;67643;-34.198;22.084;2023-08-17T08:07:01;2;2;
63707;PMS5003;67643;-34.198;22.084;2023-08-17T08:09:29;7;5;
63707;PMS5003;67643;-34.198;22.084;2023-08-17T08:12:00;4;4;
63707;PMS5003;67643;-34.198;22.084;2023-08-17T08:14:28;7;5;
63707;PMS5003;67643;-34.198;22.084;2023-08-17T08:16:57;6;3;
63707;PMS5003;67643;-34.198;22.084;2023-08-17T08:19:25;4;4;
63707;PMS5003;67643;-34.198;22.084;2023-08-17T08:21:54;3;2;
63707;PMS5003;67643;-34.198;22.084;2023-08-17T08:24:23;4;2;
63707;PMS5003;67643;-34.198;22.084;2023-08-17T08:26:51;5;5;
63707;PMS5003;67643;-34.198;22.084;2023-08-17T08:29:19;6;6;
63707;PMS5003;67643;-34.198;22.084;2023-08-17T08:31:48;4;3;
63707;PMS5003;67643;-34.198;22.084;2023-08-17T08:34:17;3;3;
63707;PMS5003;67643;-34.198;22.084;2023-08-17T08:36:45;3;3;
63707;PMS5003;67643;-34.198;22.084;2023-08-17T08:39:14;1;1;
63707;PMS5003;67643;-34.198;22.084;2023-08-17T08:41:42;4;3;
63707;PMS5003;67643;-34.198;22.084;2023-08-17T08:44:11;2;2;
63707;PMS5003;67643;-34.198;22.084;2023-08-17T08:46:40;4;3;
63707;PMS5003;67643;-34.198;22.084;2023-08-17T08:49:11;4;3;
63707;PMS5003;67643;-34.198;22.084;2023-08-17T08:51:44;3;3;
63707;PMS5003;67643;-34.198;22.084;2023-08-17T08:54:17;3;3;
63707;PMS5003;67643;-34.198;22.084;2023-08-17T08:56:50;4;2;
63707;PMS5003;67643;-34.198;22.084;2023-08-17T08:59:23;2;2;
63707;PMS5003;67643;-34.198;22.084;2023-08-17T09:01:52;3;3;
63707;PMS5003;67643;-34.198;22.084;2023-08-17T09:04:21;3;3;
63707;PMS5003;67643;-34.198;22.084;2023-08-17T09:06:51;4;3;
63707;PMS5003;67643;-34.198;22.084;2023-08-17T09:09:20;3;3;
63707;PMS5003;67643;-34.198;22.084;2023-08-17T09:11:49;2;2;
63707;PMS5003;67643;-34.198;22.084;2023-08-17T09:14:18;2;2;
63707;PMS5003;67643;-34.198;22.084;2023-08-17T09:16:46;4;4;
63707;PMS5003;67643;-34.198;22.084;2023-08-17T09:19:15;2;2;
63707;PMS5003;67643;-34.198;22.084;2023-08-17T09:21:45;2;2;
63707;PMS5003;67643;-34.198;22.084;2023-08-17T09:24:14;3;2;
63707;PMS5003;67643;-34.198;22.084;2023-08-17T09:26:42;2;2;
63707;PMS5003;67643;-34.198;22.084;2023-08-17T09:29:18;3;3;
63707;PMS5003;67643;-34.198;22.084;2023-08-17T09:31:47;4;3;
63707;PMS5003;67643;-34.198;22.084;2023-08-17T09:34:16;3;3;
63707;PMS5003;67643;-34.198;22.084;2023-08-17T09:36:45;5;3;
63707;PMS5003;67643;-34.198;22.084;2023-08-17T09:39:15;4;3;
63707;PMS5003;67643;-34.198;22.084;2023-08-17T09:41:44;2;2;
63707;PMS5003;67643;-34.198;22.084;2023-08-17T09:44:12;2;2;
63707;PMS5003;67643;-34.198;22.084;2023-08-17T09:46:42;2;2;
63707;PMS5003;67643;-34.198;22.084;2023-08-17T09:49:11;3;2;
63707;PMS5003;67643;-34.198;22.084;2023-08-17T09:51:42;3;3;
63707;PMS5003;67643;-34.198;22.084;2023-08-17T09:54:16;2;2;
63707;PMS5003;67643;-34.198;22.084;2023-08-17T09:56:49;2;2;
63707;PMS5003;67643;-34.198;22.084;2023-08-17T09:59:18;3;3;
63707;PMS5003;67643;-34.198;22.084;2023-08-17T10:01:47;2;2;
63707;PMS5003;67643;-34.198;22.084;2023-08-17T10:04:18;5;1;
63707;PMS5003;67643;-34.198;22.084;2023-08-17T10:06:51;4;3;
63707;PMS5003;67643;-34.198;22.084;2023-08-17T10:09:24;3;3;
63707;PMS5003;67643;-34.198;22.084;2023-08-17T10:11:57;8;4;
63707;PMS5003;67643;-34.198;22.084;2023-08-17T10:14:29;6;6;
63707;PMS5003;67643;-34.198;22.084;2023-08-17T10:17:06;4;4;
63707;PMS5003;67643;-34.198;22.084;2023-08-17T10:19:37;8;7;
63707;PMS5003;67643;-34.198;22.084;2023-08-17T10:22:16;7;5;
63707;PMS5003;67643;-34.198;22.084;2023-08-17T10:24:47;5;5;
63707;PMS5003;67643;-34.198;22.084;2023-08-17T10:27:16;11;8;
63707;PMS5003;67643;-34.198;22.084;2023-08-17T10:29:47;11;11;
63707;PMS5003;67643;-34.198;22.084;2023-08-17T10:32:18;8;7;
63707;PMS5003;67643;-34.198;22.084;2023-08-17T10:34:48;12;11;
63707;PMS5003;67643;-34.198;22.084;2023-08-17T10:37:18;18;18;
63707;PMS5003;67643;-34.198;22.084;2023-08-17T10:39:47;23;23;
63707;PMS5003;67643;-34.198;22.084;2023-08-17T10:42:18;25;19;
63707;PMS5003;67643;-34.198;22.084;2023-08-17T10:44:58;22;17;
63707;PMS5003;67643;-34.198;22.084;2023-08-17T10:47:28;24;19;
63707;PMS5003;67643;-34.198;22.084;2023-08-17T10:49:58;27;22;
63707;PMS5003;67643;-34.198;22.084;2023-08-17T10:52:31;33;26;
63707;PMS5003;67643;-34.198;22.084;2023-08-17T10:55:01;29;24;
63707;PMS5003;67643;-34.198;22.084;2023-08-17T10:57:33;25;23;
63707;PMS5003;67643;-34.198;22.084;2023-08-17T11:00:06;25;22;
63707;PMS5003;67643;-34.198;22.084;2023-08-17T11:02:39;23;20;
63707;PMS5003;67643;-34.198;22.084;2023-08-17T11:05:10;34;25;
63707;PMS5003;67643;-34.198;22.084;2023-08-17T11:07:40;24;17;
63707;PMS5003;67643;-34.198;22.084;2023-08-17T11:10:11;19;18;
63707;PMS5003;67643;-34.198;22.084;2023-08-17T11:12:54;25;17;
63707;PMS5003;67643;-34.198;22.084;2023-08-17T11:15:24;25;21;
63707;PMS5003;67643;-34.198;22.084;2023-08-17T11:17:53;23;18;
63707;PMS5003;67643;-34.198;22.084;2023-08-17T11:20:23;18;15;
63707;PMS5003;67643;-34.198;22.084;2023-08-17T11:22:52;20;18;
63707;PMS5003;67643;-34.198;22.084;2023-08-17T11:25:20;22;18;
63707;PMS5003;67643;-34.198;22.084;2023-08-17T11:27:48;21;15;
63707;PMS5003;67643;-34.198;22.084;2023-08-17T11:30:18;25;17;
63707;PMS5003;67643;-34.198;22.084;2023-08-17T11:32:48;22;15;
63707;PMS5003;67643;-34.198;22.084;2023-08-17T11:35:17;18;15;
63707;PMS5003;67643;-34.198;22.084;2023-08-17T11:37:47;17;12;
63707;PMS5003;67643;-34.198;22.084;2023-08-17T11:40:15;15;13;
63707;PMS5003;67643;-34.198;22.084;2023-08-17T11:42:44;12;11;
63707;PMS5003;67643;-34.198;22.084;2023-08-17T11:45:13;13;11;
63707;PMS5003;67643;-34.198;22.084;2023-08-17T11:47:42;14;9;
63707;PMS5003;67643;-34.198;22.084;2023-08-17T11:50:11;11;8;
63707;PMS5003;67643;-34.198;22.084;2023-08-17T11:52:40;9;8;
63707;PMS5003;67643;-34.198;22.084;2023-08-17T11:55:08;10;9;
63707;PMS5003;67643;-34.198;22.084;2023-08-17T11:57:37;9;9;
63707;PMS5003;67643;-34.198;22.084;2023-08-17T12:00:06;12;9;
63707;PMS5003;67643;-34.198;22.084;2023-08-17T12:02:35;9;8;
63707;PMS5003;67643;-34.198;22.084;2023-08-17T12:05:04;10;5;
63707;PMS5003;67643;-34.198;22.084;2023-08-17T12:07:33;10;6;
63707;PMS5003;67643;-34.198;22.084;2023-08-17T12:10:02;8;6;
63707;PMS5003;67643;-34.198;22.084;2023-08-17T12:12:35;6;6;
63707;PMS5003;67643;-34.198;22.084;2023-08-17T12:15:05;10;10;
63707;PMS5003;67643;-34.198;22.084;2023-08-17T12:17:34;8;7;
63707;PMS5003;67643;-34.198;22.084;2023-08-17T12:20:02;9;8;
63707;PMS5003;67643;-34.198;22.084;2023-08-17T12:22:32;14;6;
63707;PMS5003;67643;-34.198;22.084;2023-08-17T12:25:00;5;5;
63707;PMS5003;67643;-34.198;22.084;2023-08-17T12:27:29;5;4;
63707;PMS5003;67643;-34.198;22.084;2023-08-17T12:29:58;5;5;
63707;PMS5003;67643;-34.198;22.084;2023-08-17T12:32:27;6;5;
63707;PMS5003;67643;-34.198;22.084;2023-08-17T12:34:55;5;5;
63707;PMS5003;67643;-34.198;22.084;2023-08-17T12:37:24;10;7;
63707;PMS5003;67643;-34.198;22.084;2023-08-17T12:39:52;7;6;
63707;PMS5003;67643;-34.198;22.084;2023-08-17T12:42:21;5;5;
63707;PMS5003;67643;-34.198;22.084;2023-08-17T12:44:49;7;5;
63707;PMS5003;67643;-34.198;22.084;2023-08-17T12:47:18;6;3;
63707;PMS5003;67643;-34.198;22.084;2023-08-17T12:49:46;2;2;
63707;PMS5003;67643;-34.198;22.084;2023-08-17T12:52:15;5;5;
63707;PMS5003;67643;-34.198;22.084;2023-08-17T12:54:44;5;3;
63707;PMS5003;67643;-34.198;22.084;2023-08-17T12:57:12;5;3;
63707;PMS5003;67643;-34.198;22.084;2023-08-17T12:59:41;4;3;
63707;PMS5003;67643;-34.198;22.084;2023-08-17T13:02:09;6;4;
63707;PMS5003;67643;-34.198;22.084;2023-08-17T13:04:38;6;2;
63707;PMS5003;67643;-34.198;22.084;2023-08-17T13:07:06;8;5;
63707;PMS5003;67643;-34.198;22.084;2023-08-17T13:09:35;7;4;
63707;PMS5003;67643;-34.198;22.084;2023-08-17T13:12:04;3;3;
63707;PMS5003;67643;-34.198;22.084;2023-08-17T13:14:33;3;3;
63707;PMS5003;67643;-34.198;22.084;2023-08-17T13:17:01;6;2;
63707;PMS5003;67643;-34.198;22.084;2023-08-17T13:19:30;2;1;
63707;PMS5003;67643;-34.198;22.084;2023-08-17T13:21:58;3;3;
63707;PMS5003;67643;-34.198;22.084;2023-08-17T13:24:27;1;1;
63707;PMS5003;67643;-34.198;22.084;2023-08-17T13:26:55;1;1;
63707;PMS5003;67643;-34.198;22.084;2023-08-17T13:29:24;2;2;
63707;PMS5003;67643;-34.198;22.084;2023-08-17T13:31:52;0;0;
63707;PMS5003;67643;-34.198;22.084;2023-08-17T13:34:21;3;1;
63707;PMS5003;67643;-34.198;22.084;2023-08-17T13:36:49;2;1;
63707;PMS5003;67643;-34.198;22.084;2023-08-17T13:39:18;1;1;
63707;PMS5003;67643;-34.198;22.084;2023-08-17T13:41:46;0;0;
63707;PMS5003;67643;-34.198;22.084;2023-08-17T13:44:15;2;1;
63707;PMS5003;67643;-34.198;22.084;2023-08-17T13:46:44;2;1;
63707;PMS5003;67643;-34.198;22.084;2023-08-17T13:49:12;2;2;
63707;PMS5003;67643;-34.198;22.084;2023-08-17T13:51:41;4;1;
63707;PMS5003;67643;-34.198;22.084;2023-08-17T13:54:09;3;1;
63707;PMS5003;67643;-34.198;22.084;2023-08-17T13:56:38;4;3;
63707;PMS5003;67643;-34.198;22.084;2023-08-17T13:59:06;6;3;
63707;PMS5003;67643;-34.198;22.084;2023-08-17T14:01:35;4;2;
63707;PMS5003;67643;-34.198;22.084;2023-08-17T14:04:04;4;4;
63707;PMS5003;67643;-34.198;22.084;2023-08-17T14:06:33;5;3;
63707;PMS5003;67643;-34.198;22.084;2023-08-17T14:09:02;0;0;
63707;PMS5003;67643;-34.198;22.084;2023-08-17T14:11:30;4;2;
63707;PMS5003;67643;-34.198;22.084;2023-08-17T14:13:59;4;3;
63707;PMS5003;67643;-34.198;22.084;2023-08-17T14:16:27;2;0;
63707;PMS5003;67643;-34.198;22.084;2023-08-17T14:18:55;2;1;
63707;PMS5003;67643;-34.198;22.084;2023-08-17T14:21:24;2;2;
63707;PMS5003;67643;-34.198;22.084;2023-08-17T14:23:52;2;2;
63707;PMS5003;67643;-34.198;22.084;2023-08-17T14:26:21;4;1;
63707;PMS5003;67643;-34.198;22.084;2023-08-17T14:28:49;2;2;
63707;PMS5003;67643;-34.198;22.084;2023-08-17T14:31:18;6;1;
63707;PMS5003;67643;-34.198;22.084;2023-08-17T14:33:46;2;2;
63707;PMS5003;67643;-34.198;22.084;2023-08-17T14:36:15;2;1;
63707;PMS5003;67643;-34.198;22.084;2023-08-17T14:38:44;5;1;
63707;PMS5003;67643;-34.198;22.084;2023-08-17T14:41:12;3;1;
63707;PMS5003;67643;-34.198;22.084;2023-08-17T14:43:41;3;2;
63707;PMS5003;67643;-34.198;22.084;2023-08-17T14:46:09;2;2;
63707;PMS5003;67643;-34.198;22.084;2023-08-17T14:48:38;2;2;
63707;PMS5003;67643;-34.198;22.084;2023-08-17T14:51:06;4;3;
63707;PMS5003;67643;-34.198;22.084;2023-08-17T14:53:35;7;1;
63707;PMS5003;67643;-34.198;22.084;2023-08-17T14:56:04;1;1;
63707;PMS5003;67643;-34.198;22.084;2023-08-17T14:58:32;2;2;
63707;PMS5003;67643;-34.198;22.084;2023-08-17T15:01:01;2;1;
63707;PMS5003;67643;-34.198;22.084;2023-08-17T15:03:29;1;1;
63707;PMS5003;67643;-34.198;22.084;2023-08-17T15:05:58;3;3;
63707;PMS5003;67643;-34.198;22.084;2023-08-17T15:08:26;1;1;
63707;PMS5003;67643;-34.198;22.084;2023-08-17T15:10:54;2;2;
63707;PMS5003;67643;-34.198;22.084;2023-08-17T15:13:23;3;2;
63707;PMS5003;67643;-34.198;22.084;2023-08-17T15:15:51;4;2;
63707;PMS5003;67643;-34.198;22.084;2023-08-17T15:18:19;2;2;
63707;PMS5003;67643;-34.198;22.084;2023-08-17T15:20:48;2;2;
63707;PMS5003;67643;-34.198;22.084;2023-08-17T15:23:17;2;2;
63707;PMS5003;67643;-34.198;22.084;2023-08-17T15:25:45;6;4;
63707;PMS5003;67643;-34.198;22.084;2023-08-17T15:28:13;3;1;
63707;PMS5003;67643;-34.198;22.084;2023-08-17T15:30:42;4;2;
63707;PMS5003;67643;-34.198;22.084;2023-08-17T15:33:11;2;1;
63707;PMS5003;67643;-34.198;22.084;2023-08-17T15:35:39;6;3;
63707;PMS5003;67643;-34.198;22.084;2023-08-17T15:38:08;3;2;
63707;PMS5003;67643;-34.198;22.084;2023-08-17T15:40:36;4;3;
63707;PMS5003;67643;-34.198;22.084;2023-08-17T15:43:05;5;2;
63707;PMS5003;67643;-34.198;22.084;2023-08-17T15:45:33;4;2;
63707;PMS5003;67643;-34.198;22.084;2023-08-17T15:48:02;4;3;
63707;PMS5003;67643;-34.198;22.084;2023-08-17T15:50:30;5;2;
63707;PMS5003;67643;-34.198;22.084;2023-08-17T15:52:59;4;2;
63707;PMS5003;67643;-34.198;22.084;2023-08-17T15:55:28;4;3;
63707;PMS5003;67643;-34.198;22.084;2023-08-17T15:57:56;3;3;
63707;PMS5003;67643;-34.198;22.084;2023-08-17T16:00:24;8;7;
63707;PMS5003;67643;-34.198;22.084;2023-08-17T16:02:53;6;5;
63707;PMS5003;67643;-34.198;22.084;2023-08-17T16:05:22;10;10;
63707;PMS5003;67643;-34.198;22.084;2023-08-17T16:07:50;21;17;
63707;PMS5003;67643;-34.198;22.084;2023-08-17T16:10:19;24;22;
63707;PMS5003;67643;-34.198;22.084;2023-08-17T16:12:47;28;26;
63707;PMS5003;67643;-34.198;22.084;2023-08-17T16:15:15;32;29;
63707;PMS5003;67643;-34.198;22.084;2023-08-17T16:17:44;40;39;
63707;PMS5003;67643;-34.198;22.084;2023-08-17T16:20:12;38;33;
63707;PMS5003;67643;-34.198;22.084;2023-08-17T16:22:41;31;28;
63707;PMS5003;67643;-34.198;22.084;2023-08-17T16:25:11;34;31;
63707;PMS5003;67643;-34.198;22.084;2023-08-17T16:27:39;34;33;
63707;PMS5003;67643;-34.198;22.084;2023-08-17T16:30:08;31;29;
63707;PMS5003;67643;-34.198;22.084;2023-08-17T16:32:36;31;28;
63707;PMS5003;67643;-34.198;22.084;2023-08-17T16:35:05;36;27;
63707;PMS5003;67643;-34.198;22.084;2023-08-17T16:37:33;34;30;
63707;PMS5003;67643;-34.198;22.084;2023-08-17T16:40:02;32;26;
63707;PMS5003;67643;-34.198;22.084;2023-08-17T16:42:31;34;29;
63707;PMS5003;67643;-34.198;22.084;2023-08-17T16:45:00;29;26;
63707;PMS5003;67643;-34.198;22.084;2023-08-17T16:47:28;30;26;
63707;PMS5003;67643;-34.198;22.084;2023-08-17T16:49:57;36;30;
63707;PMS5003;67643;-34.198;22.084;2023-08-17T16:52:25;32;28;
63707;PMS5003;67643;-34.198;22.084;2023-08-17T16:54:54;26;24;
63707;PMS5003;67643;-34.198;22.084;2023-08-17T16:57:23;26;26;
63707;PMS5003;67643;-34.198;22.084;2023-08-17T16:59:51;25;24;
63707;PMS5003;67643;-34.198;22.084;2023-08-17T17:02:19;24;21;
63707;PMS5003;67643;-34.198;22.084;2023-08-17T17:04:47;24;22;
63707;PMS5003;67643;-34.198;22.084;2023-08-17T17:07:15;22;20;
63707;PMS5003;67643;-34.198;22.084;2023-08-17T17:09:44;26;19;
63707;PMS5003;67643;-34.198;22.084;2023-08-17T17:12:12;22;18;
63707;PMS5003;67643;-34.198;22.084;2023-08-17T17:14:41;19;16;
63707;PMS5003;67643;-34.198;22.084;2023-08-17T17:17:12;16;16;
63707;PMS5003;67643;-34.198;22.084;2023-08-17T17:19:41;16;16;
63707;PMS5003;67643;-34.198;22.084;2023-08-17T17:22:10;17;14;
63707;PMS5003;67643;-34.198;22.084;2023-08-17T17:24:38;19;17;
63707;PMS5003;67643;-34.198;22.084;2023-08-17T17:27:07;13;12;
63707;PMS5003;67643;-34.198;22.084;2023-08-17T17:29:36;15;13;
63707;PMS5003;67643;-34.198;22.084;2023-08-17T17:32:04;7;7;
63707;PMS5003;67643;-34.198;22.084;2023-08-17T17:34:32;8;8;
63707;PMS5003;67643;-34.198;22.084;2023-08-17T17:37:01;10;8;
63707;PMS5003;67643;-34.198;22.084;2023-08-17T17:39:30;6;6;
63707;PMS5003;67643;-34.198;22.084;2023-08-17T17:41:59;10;8;
63707;PMS5003;67643;-34.198;22.084;2023-08-17T17:44:28;5;4;
63707;PMS5003;67643;-34.198;22.084;2023-08-17T17:46:56;11;8;
63707;PMS5003;67643;-34.198;22.084;2023-08-17T17:49:24;7;5;
63707;PMS5003;67643;-34.198;22.084;2023-08-17T17:51:53;8;8;
63707;PMS5003;67643;-34.198;22.084;2023-08-17T17:54:21;12;10;
63707;PMS5003;67643;-34.198;22.084;2023-08-17T17:56:49;10;9;
63707;PMS5003;67643;-34.198;22.084;2023-08-17T17:59:18;9;7;
63707;PMS5003;67643;-34.198;22.084;2023-08-17T18:01:46;8;7;
63707;PMS5003;67643;-34.198;22.084;2023-08-17T20:04:13;0;0;
63707;PMS5003;67643;-34.198;22.084;2023-08-17T20:06:41;1;1;
63707;PMS5003;67643;-34.198;22.084;2023-08-17T20:09:09;1;1;
63707;PMS5003;67643;-34.198;22.084;2023-08-17T20:11:38;0;0;
63707;PMS5003;67643;-34.198;22.084;2023-08-17T20:14:06;2;1;
63707;PMS5003;67643;-34.198;22.084;2023-08-17T20:16:35;2;1;
63707;PMS5003;67643;-34.198;22.084;2023-08-17T20:19:04;0;0;
63707;PMS5003;67643;-34.198;22.084;2023-08-17T20:21:32;1;1;